Time;durP1;ratioP1;P1;durP2;ratioP2;P2;SDS_P1;SDS_P2;PMS_P1;PMS_P2;Temp;Humidity;BMP_temperature;BMP_pressure;BME280_temperature;BME280_humidity;BME280_pressure;Samples;Min_cycle;Max_cycle;Signal;HPM_P1;HPM_P2
2022/01/21 00:01:13;;;;;;;11.25;1.63;;;2.00;99.90;;;;;;4941276;28;20039;-70
2022/01/21 00:03:40;;;;;;;10.90;1.92;;;2.00;99.90;;;;;;4934953;28;20051;-70
2022/01/21 00:06:06;;;;;;;15.00;2.55;;;1.90;99.90;;;;;;4937873;28;20411;-70
2022/01/21 00:08:41;;;;;;;17.73;2.13;;;2.00;99.90;;;;;;4936639;28;20043;-70
2022/01/21 00:11:06;;;;;;;;;;;2.10;99.90;;;;;;4934010;28;20743;-70
2022/01/21 00:13:36;;;;;;;11.65;1.88;;;1.90;99.90;;;;;;4938898;28;19930;-71
2022/01/21 00:16:07;;;;;;;12.38;2.25;;;2.00;99.90;;;;;;4935968;28;20059;-70
2022/01/21 00:18:35;;;;;;;16.13;2.03;;;2.00;99.90;;;;;;4931959;28;20044;-70
2022/01/21 00:31:59;;;;;;;7.13;0.98;;;2.50;99.90;;;;;;4935452;28;20146;-71
2022/01/21 00:34:25;;;;;;;9.63;1.77;;;2.70;99.90;;;;;;4932136;28;20138;-70
2022/01/21 00:36:51;;;;;;;13.75;2.10;;;2.50;99.90;;;;;;4935033;28;20167;-71
2022/01/21 00:39:21;;;;;;;7.43;1.65;;;2.60;99.90;;;;;;4932493;28;20394;-70
2022/01/21 00:41:58;;;;;;;12.88;1.60;;;2.50;99.90;;;;;;4932314;29;20055;-71
2022/01/21 00:44:24;;;;;;;12.88;1.40;;;2.90;99.90;;;;;;4944980;28;20043;-70
2022/01/21 00:46:50;;;;;;;8.10;1.67;;;2.60;99.90;;;;;;4931683;28;20048;-70
2022/01/21 00:49:16;;;;;;;11.32;1.65;;;2.60;99.90;;;;;;4936196;28;20040;-70
2022/01/21 00:51:42;;;;;;;9.50;1.30;;;2.60;99.90;;;;;;4936719;28;20051;-71
2022/01/21 00:54:08;;;;;;;11.30;2.08;;;2.60;99.90;;;;;;4931507;28;20424;-69
2022/01/21 00:56:34;;;;;;;5.35;1.00;;;2.60;99.90;;;;;;4932840;28;20044;-69
2022/01/21 00:58:59;;;;;;;11.65;1.17;;;2.60;99.90;;;;;;4935016;28;20487;-69
2022/01/21 01:01:25;;;;;;;7.65;1.35;;;2.60;99.90;;;;;;4933778;28;20047;-69
2022/01/21 01:03:51;;;;;;;17.95;2.47;;;2.60;99.90;;;;;;4933561;28;20054;-69
2022/01/21 01:06:17;;;;;;;7.10;1.00;;;2.60;99.90;;;;;;4938665;28;20062;-69
2022/01/21 01:08:42;;;;;;;17.38;1.95;;;2.60;99.90;;;;;;4932237;28;20040;-69
2022/01/21 01:21:31;;;;;;;15.07;3.70;;;2.70;99.90;;;;;;5015743;28;20060;-70
2022/01/21 01:27:36;;;;;;;17.25;2.72;;;2.50;99.90;;;;;;4934420;28;20083;-69
2022/01/21 01:29:34;;;;;;;18.98;2.28;;;2.50;99.90;;;;;;4931027;28;20047;-69
2022/01/21 01:31:59;;;;;;;15.63;1.60;;;2.50;99.90;;;;;;4930133;28;20047;-70
2022/01/21 01:34:25;;;;;;;14.73;1.85;;;2.50;99.90;;;;;;4943355;29;20063;-69
2022/01/21 01:36:57;;;;;;;15.48;1.75;;;2.50;99.90;;;;;;4935367;28;20039;-70
2022/01/21 01:39:35;;;;;;;14.32;1.75;;;2.50;99.90;;;;;;4931847;28;20044;-70
2022/01/21 01:43:05;;;;;;;11.23;2.35;;;2.50;99.90;;;;;;4937226;28;20055;-70
2022/01/21 01:50:31;;;;;;;14.63;1.83;;;2.60;99.90;;;;;;4933668;28;20060;-69
2022/01/21 01:52:56;;;;;;;10.48;1.25;;;2.70;99.90;;;;;;4934820;28;20105;-70
2022/01/21 01:55:23;;;;;;;9.07;1.00;;;2.60;99.90;;;;;;4932931;28;20510;-70
2022/01/21 01:57:48;;;;;;;11.25;1.80;;;2.60;99.90;;;;;;4940112;28;20039;-70
2022/01/21 02:00:14;;;;;;;14.70;2.30;;;2.60;99.90;;;;;;4942269;28;20035;-70
2022/01/21 02:02:40;;;;;;;9.68;1.23;;;2.60;99.90;;;;;;4943306;28;20047;-70
2022/01/21 02:05:06;;;;;;;7.95;1.27;;;2.70;99.90;;;;;;4942992;28;20100;-70
2022/01/21 02:07:33;;;;;;;14.98;2.10;;;2.60;99.90;;;;;;4940505;28;20473;-70
2022/01/21 02:09:58;;;;;;;8.38;1.00;;;2.60;99.90;;;;;;4933237;28;20048;-70
2022/01/21 02:12:24;;;;;;;14.80;1.55;;;2.50;99.90;;;;;;4942043;28;20050;-70
2022/01/21 02:14:52;;;;;;;13.40;1.50;;;2.50;99.90;;;;;;4937391;28;20059;-70
2022/01/21 02:22:37;;;;;;;7.38;0.77;;;2.60;99.90;;;;;;4935547;28;20067;-70
2022/01/21 02:25:15;;;;;;;10.50;1.48;;;2.60;99.90;;;;;;4940989;28;20441;-70
2022/01/21 02:27:42;;;;;;;6.45;1.10;;;2.60;99.90;;;;;;4931589;28;20047;-70
2022/01/21 02:30:09;;;;;;;8.07;1.00;;;3.40;99.90;;;;;;4938877;28;20051;-70
2022/01/21 02:32:35;;;;;;;14.23;1.65;;;2.60;99.90;;;;;;4939539;28;20524;-69
2022/01/21 02:35:00;;;;;;;7.30;0.90;;;2.50;99.90;;;;;;4942561;28;20134;-70
2022/01/21 02:37:26;;;;;;;8.73;1.00;;;2.50;99.90;;;;;;4942971;28;20074;-70
2022/01/21 02:39:52;;;;;;;4.57;0.60;;;2.60;99.90;;;;;;4931224;28;20097;-70
2022/01/21 02:42:17;;;;;;;4.90;0.70;;;2.50;99.90;;;;;;4935439;28;20387;-70
2022/01/21 02:44:43;;;;;;;4.97;0.82;;;2.50;99.90;;;;;;4942275;28;20383;-70
2022/01/21 02:47:09;;;;;;;8.75;0.98;;;2.40;99.90;;;;;;4931625;28;20055;-70
2022/01/21 02:49:36;;;;;;;6.05;0.82;;;2.40;99.90;;;;;;4934589;28;20039;-70
2022/01/21 02:52:03;;;;;;;7.72;0.77;;;2.40;99.90;;;;;;4939407;28;20642;-70
2022/01/21 02:54:33;;;;;;;5.40;0.85;;;2.40;99.90;;;;;;4936697;28;20522;-70
2022/01/21 02:57:00;;;;;;;7.07;0.77;;;2.40;99.90;;;;;;4932687;28;20048;-71
2022/01/21 02:59:26;;;;;;;5.63;1.38;;;2.50;99.90;;;;;;4935967;28;20122;-70
2022/01/21 03:01:52;;;;;;;7.40;1.00;;;2.40;99.90;;;;;;4938505;28;20040;-70
2022/01/21 03:04:28;;;;;;;4.18;0.80;;;2.40;99.90;;;;;;4933060;29;20051;-70
2022/01/21 03:06:54;;;;;;;4.50;1.23;;;2.40;99.90;;;;;;4939644;28;20047;-70
2022/01/21 03:09:20;;;;;;;7.10;0.95;;;2.40;99.90;;;;;;4937267;28;20051;-70
2022/01/21 03:11:45;;;;;;;12.00;1.10;;;2.40;99.90;;;;;;4938964;28;20093;-70
2022/01/21 03:14:11;;;;;;;6.57;0.77;;;2.40;99.90;;;;;;4939335;28;20048;-70
2022/01/21 03:16:37;;;;;;;6.00;0.70;;;2.40;99.90;;;;;;4943195;28;20487;-70
2022/01/21 03:19:03;;;;;;;9.75;0.70;;;2.40;99.90;;;;;;4939376;28;20141;-70
2022/01/21 03:21:28;;;;;;;7.03;0.60;;;2.40;99.90;;;;;;4934226;28;20052;-70
2022/01/21 03:23:55;;;;;;;3.92;0.50;;;2.50;99.90;;;;;;4940135;28;20609;-70
2022/01/21 03:26:23;;;;;;;4.45;0.50;;;2.50;99.90;;;;;;4939444;28;20067;-70
2022/01/21 03:28:52;;;;;;;2.53;0.40;;;2.50;99.90;;;;;;4931445;28;20069;-70
2022/01/21 03:31:18;;;;;;;5.22;0.60;;;2.50;99.90;;;;;;4931825;28;20139;-70
2022/01/21 03:33:45;;;;;;;4.40;0.52;;;2.60;99.90;;;;;;4934684;28;20123;-70
2022/01/21 03:36:11;;;;;;;10.65;0.80;;;2.60;99.90;;;;;;4932949;28;20484;-70
2022/01/21 03:38:37;;;;;;;2.95;0.73;;;2.60;99.90;;;;;;4937405;28;20082;-70
2022/01/21 03:41:04;;;;;;;5.38;0.85;;;2.50;99.90;;;;;;4934132;28;20423;-70
2022/01/21 03:43:30;;;;;;;2.55;0.40;;;2.60;99.90;;;;;;4939938;28;20506;-70
2022/01/21 03:45:56;;;;;;;2.42;0.50;;;2.60;99.90;;;;;;4938983;28;20509;-70
2022/01/21 03:48:22;;;;;;;6.60;0.50;;;2.60;99.90;;;;;;4938505;28;20081;-70
2022/01/21 03:50:49;;;;;;;3.20;0.40;;;2.60;99.90;;;;;;4942732;28;20044;-70
2022/01/21 03:53:15;;;;;;;3.47;0.40;;;3.30;99.90;;;;;;4932725;28;20182;-70
2022/01/21 03:55:41;;;;;;;4.22;0.50;;;2.60;99.90;;;;;;4930585;28;20657;-70
2022/01/21 03:58:09;;;;;;;2.83;0.43;;;2.50;99.90;;;;;;4936386;28;20051;-70
2022/01/21 04:00:38;;;;;;;5.35;0.77;;;2.50;99.90;;;;;;4937019;28;20052;-70
2022/01/21 04:03:05;;;;;;;7.35;0.77;;;2.50;99.90;;;;;;4940179;28;20580;-70
2022/01/21 04:05:31;;;;;;;5.13;0.30;;;2.50;99.90;;;;;;4934758;28;20043;-70
2022/01/21 04:07:57;;;;;;;6.18;0.45;;;2.60;99.90;;;;;;4930965;28;20069;-70
2022/01/21 04:10:23;;;;;;;8.77;0.70;;;2.50;99.90;;;;;;4934511;28;20062;-70
2022/01/21 04:12:49;;;;;;;5.90;0.50;;;2.40;99.90;;;;;;4932696;28;20043;-70
2022/01/21 04:15:15;;;;;;;5.93;0.43;;;2.40;99.90;;;;;;4930750;28;20403;-70
2022/01/21 04:17:41;;;;;;;3.53;0.57;;;2.30;99.90;;;;;;4935725;28;20047;-70
2022/01/21 04:20:09;;;;;;;6.45;0.52;;;2.30;99.90;;;;;;4933173;28;20048;-70
2022/01/21 04:22:35;;;;;;;4.00;0.30;;;2.30;99.90;;;;;;4941066;28;20043;-70
2022/01/21 04:25:01;;;;;;;5.63;0.60;;;2.70;99.90;;;;;;4930209;28;20995;-70
2022/01/21 04:27:27;;;;;;;6.40;0.70;;;2.20;99.90;;;;;;4933112;28;20130;-70
2022/01/21 04:29:52;;;;;;;6.13;0.55;;;2.20;99.90;;;;;;4926873;28;20050;-70
2022/01/21 04:32:18;;;;;;;5.60;0.50;;;2.20;99.90;;;;;;4932211;28;20434;-70
2022/01/21 04:34:44;;;;;;;8.50;1.38;;;2.20;99.90;;;;;;4931215;28;20426;-70
2022/01/21 04:37:12;;;;;;;6.55;0.75;;;2.20;99.90;;;;;;4932037;28;20039;-70
2022/01/21 04:39:45;;;;;;;2.95;0.40;;;2.20;99.90;;;;;;4938884;28;20118;-71
2022/01/21 04:47:40;;;;;;;3.97;0.43;;;2.10;99.90;;;;;;4983627;28;19932;-70
2022/01/21 04:50:13;;;;;;;6.65;1.10;;;2.10;99.90;;;;;;4936859;28;20068;-70
2022/01/21 04:52:39;;;;;;;7.28;0.60;;;2.00;99.90;;;;;;4939226;28;20048;-70
2022/01/21 04:55:06;;;;;;;8.00;0.60;;;2.00;99.90;;;;;;4933943;28;20039;-70
2022/01/21 04:57:31;;;;;;;4.60;0.52;;;1.90;99.90;;;;;;4931237;28;20126;-70
2022/01/21 04:59:57;;;;;;;5.18;0.90;;;1.90;99.90;;;;;;4932130;28;20131;-70
2022/01/21 05:02:24;;;;;;;6.10;0.60;;;1.80;99.90;;;;;;4933197;28;20055;-70
2022/01/21 05:04:50;;;;;;;6.57;0.95;;;1.80;99.90;;;;;;4939214;28;20528;-70
2022/01/21 05:07:20;;;;;;;4.20;0.70;;;1.80;99.90;;;;;;4941898;28;20079;-70
2022/01/21 05:09:46;;;;;;;9.73;0.90;;;1.80;99.90;;;;;;4933312;28;20131;-70
2022/01/21 05:12:17;;;;;;;8.07;1.27;;;1.80;99.90;;;;;;4939508;28;20205;-70
2022/01/21 05:15:10;;;;;;;3.53;0.68;;;1.80;99.90;;;;;;4930984;28;20060;-70
2022/01/21 05:17:43;;;;;;;8.30;0.75;;;1.80;99.90;;;;;;4936218;28;20058;-70
2022/01/21 05:20:09;;;;;;;8.05;0.60;;;1.80;99.90;;;;;;4938452;28;20047;-70
2022/01/21 05:22:35;;;;;;;5.28;0.95;;;1.80;99.90;;;;;;4933606;28;20090;-70
2022/01/21 05:25:00;;;;;;;4.32;0.80;;;1.80;99.90;;;;;;4937772;28;20055;-70
2022/01/21 05:27:26;;;;;;;5.70;1.08;;;1.80;99.90;;;;;;4930323;28;20053;-70
2022/01/21 05:29:52;;;;;;;8.85;1.50;;;1.80;99.90;;;;;;4931881;28;20670;-70
2022/01/21 05:32:17;;;;;;;9.18;1.20;;;1.90;99.90;;;;;;4932767;28;20126;-70
2022/01/21 05:34:43;;;;;;;11.45;1.40;;;1.90;99.90;;;;;;4945283;28;20048;-70
2022/01/21 05:37:09;;;;;;;7.40;1.00;;;1.90;99.90;;;;;;4941254;28;20181;-70
2022/01/21 05:39:34;;;;;;;11.60;1.52;;;2.00;99.90;;;;;;4937336;28;20047;-70
2022/01/21 05:42:02;;;;;;;10.35;1.15;;;2.00;99.90;;;;;;4935821;28;20075;-70
2022/01/21 05:46:59;;;;;;;12.52;1.40;;;2.10;99.90;;;;;;4936249;28;20055;-70
2022/01/21 05:49:27;;;;;;;6.63;1.38;;;2.10;99.90;;;;;;4934522;28;20082;-70
2022/01/21 05:52:01;;;;;;;6.00;1.00;;;2.10;99.90;;;;;;4934468;28;20433;-70
2022/01/21 05:54:27;;;;;;;6.78;0.73;;;2.10;99.90;;;;;;4942336;28;20044;-70
2022/01/21 05:56:53;;;;;;;4.25;0.90;;;2.20;99.90;;;;;;4940139;29;20094;-70
2022/01/21 05:59:19;;;;;;;9.30;1.60;;;2.20;99.90;;;;;;4935598;28;20101;-70
2022/01/21 06:01:45;;;;;;;7.72;0.93;;;2.10;99.90;;;;;;4938167;28;20047;-71
2022/01/21 06:04:11;;;;;;;6.88;1.10;;;2.20;99.90;;;;;;4938393;28;20050;-70
2022/01/21 06:06:36;;;;;;;8.23;1.00;;;2.20;99.90;;;;;;4941584;28;20138;-70
2022/01/21 06:09:03;;;;;;;10.00;1.35;;;2.20;99.90;;;;;;4939650;28;20537;-70
2022/01/21 06:11:29;;;;;;;7.18;1.02;;;2.20;99.90;;;;;;4939641;28;20470;-70
2022/01/21 06:13:55;;;;;;;12.20;1.67;;;2.20;99.90;;;;;;4936439;28;20127;-70
2022/01/21 06:16:20;;;;;;;8.02;0.70;;;2.20;99.90;;;;;;4933189;28;20047;-70
2022/01/21 06:18:46;;;;;;;4.45;0.90;;;2.20;99.90;;;;;;4932670;28;20062;-71
2022/01/21 06:21:12;;;;;;;8.88;2.35;;;2.30;99.90;;;;;;4943874;28;20047;-72
2022/01/21 06:23:38;;;;;;;10.35;1.13;;;2.30;99.90;;;;;;4930971;28;20099;-72
2022/01/21 06:26:04;;;;;;;4.82;1.45;;;2.30;99.90;;;;;;4932382;28;20075;-71
2022/01/21 06:28:29;;;;;;;6.70;1.00;;;2.30;99.90;;;;;;4940616;28;20051;-72
2022/01/21 06:30:55;;;;;;;7.60;0.77;;;2.30;99.90;;;;;;4932109;28;20483;-72
2022/01/21 06:33:21;;;;;;;7.40;1.15;;;2.40;99.90;;;;;;4940174;29;20042;-71
2022/01/21 06:35:51;;;;;;;6.80;1.10;;;2.40;99.90;;;;;;4933341;28;20059;-72
2022/01/21 06:38:18;;;;;;;8.63;1.00;;;2.40;99.90;;;;;;4939911;28;20101;-72
2022/01/21 06:40:44;;;;;;;3.50;0.60;;;2.50;99.90;;;;;;4936133;28;20063;-72
2022/01/21 06:43:09;;;;;;;9.90;1.08;;;2.50;99.90;;;;;;4937713;28;20051;-72
2022/01/21 06:45:36;;;;;;;6.65;1.33;;;2.50;99.90;;;;;;4935710;28;20066;-72
2022/01/21 06:48:02;;;;;;;11.27;1.10;;;2.50;99.90;;;;;;4934008;28;20503;-71
2022/01/21 06:50:30;;;;;;;7.35;1.35;;;2.50;99.90;;;;;;4935841;28;20056;-72
2022/01/21 06:52:56;;;;;;;12.23;0.82;;;2.50;99.90;;;;;;4936619;28;20044;-72
2022/01/21 06:55:22;;;;;;;14.23;1.52;;;2.50;99.90;;;;;;4933997;28;20051;-72
2022/01/21 06:57:47;;;;;;;6.60;0.90;;;2.40;99.90;;;;;;4937286;28;20051;-70
2022/01/21 07:00:18;;;;;;;7.95;0.95;;;3.40;99.90;;;;;;4934032;28;20058;-71
2022/01/21 07:02:44;;;;;;;7.95;1.33;;;2.40;99.90;;;;;;4935400;28;20104;-71
2022/01/21 07:05:10;;;;;;;8.38;0.75;;;2.40;99.90;;;;;;4932610;28;20044;-70
2022/01/21 07:07:36;;;;;;;8.88;1.00;;;2.40;99.90;;;;;;4934541;28;20057;-73
2022/01/21 07:10:04;;;;;;;8.88;0.90;;;2.30;99.90;;;;;;4936267;28;20050;-71
2022/01/21 07:12:30;;;;;;;14.23;1.08;;;2.30;99.90;;;;;;4941462;28;20079;-72
2022/01/21 07:14:55;;;;;;;6.65;0.93;;;2.30;99.90;;;;;;4939235;28;20446;-72
2022/01/21 07:17:21;;;;;;;9.25;1.63;;;2.30;99.90;;;;;;4935489;28;20052;-72
2022/01/21 07:19:47;;;;;;;9.93;1.27;;;2.20;99.90;;;;;;4937700;28;20487;-72
2022/01/21 07:22:13;;;;;;;9.02;1.75;;;2.20;99.90;;;;;;4936284;28;20120;-73
2022/01/21 07:24:38;;;;;;;7.38;1.58;;;2.20;99.90;;;;;;4936124;28;20471;-72
2022/01/21 07:27:04;;;;;;;12.32;1.48;;;2.20;99.90;;;;;;4930926;28;20687;-73
2022/01/21 07:29:30;;;;;;;8.98;1.15;;;2.10;99.90;;;;;;4937699;29;20047;-73
2022/01/21 07:31:55;;;;;;;16.25;2.00;;;2.10;99.90;;;;;;4934385;28;20048;-74
2022/01/21 07:34:23;;;;;;;6.70;1.13;;;2.00;99.90;;;;;;4933026;28;20055;-73
2022/01/21 07:36:48;;;;;;;8.35;1.10;;;2.10;99.90;;;;;;4937420;28;20048;-73
2022/01/21 07:39:14;;;;;;;11.70;0.98;;;2.10;99.90;;;;;;4930791;28;20046;-73
2022/01/21 07:41:40;;;;;;;10.57;1.40;;;2.10;99.90;;;;;;4934566;28;20067;-72
2022/01/21 07:44:05;;;;;;;10.27;1.38;;;2.10;99.90;;;;;;4938446;28;20051;-71
2022/01/21 07:46:31;;;;;;;8.40;1.55;;;2.10;99.90;;;;;;4935164;28;20052;-71
2022/01/21 07:48:58;;;;;;;9.57;1.50;;;2.10;99.90;;;;;;4932773;28;20047;-71
2022/01/21 07:51:24;;;;;;;11.68;1.42;;;2.00;99.90;;;;;;4942880;28;20118;-71
2022/01/21 07:53:49;;;;;;;13.63;1.67;;;2.00;99.90;;;;;;4947137;28;20122;-71
2022/01/21 07:56:15;;;;;;;10.38;1.45;;;2.00;99.90;;;;;;4935386;28;20066;-71
2022/01/21 07:58:40;;;;;;;15.70;1.48;;;2.00;99.90;;;;;;4938165;28;20054;-71
2022/01/21 08:01:06;;;;;;;10.90;1.33;;;2.00;99.90;;;;;;4933617;28;20499;-71
2022/01/21 08:03:32;;;;;;;10.02;1.52;;;2.10;99.90;;;;;;4935380;28;20122;-71
2022/01/21 08:05:57;;;;;;;11.18;1.10;;;2.00;99.90;;;;;;4945903;28;20118;-71
2022/01/21 08:08:24;;;;;;;11.00;1.65;;;2.00;99.90;;;;;;4939409;28;20176;-71
2022/01/21 08:10:50;;;;;;;9.02;1.48;;;2.00;99.90;;;;;;4937889;28;20059;-71
2022/01/21 08:13:15;;;;;;;10.55;1.60;;;2.00;99.90;;;;;;4932756;28;20059;-71
2022/01/21 08:15:41;;;;;;;14.50;1.50;;;2.10;99.90;;;;;;4935642;28;20411;-71
2022/01/21 08:18:06;;;;;;;7.88;1.42;;;2.50;99.90;;;;;;4933996;28;20047;-71
2022/01/21 08:20:32;;;;;;;12.18;1.85;;;2.10;99.90;;;;;;4939646;28;20047;-71
2022/01/21 08:22:58;;;;;;;14.52;1.92;;;2.10;99.90;;;;;;4944660;28;20055;-71
2022/01/21 08:25:24;;;;;;;11.80;1.70;;;2.10;99.90;;;;;;4941610;28;20506;-71
2022/01/21 08:27:50;;;;;;;9.57;1.40;;;2.20;99.90;;;;;;4946716;28;20046;-71
2022/01/21 08:30:15;;;;;;;15.93;1.40;;;2.30;99.90;;;;;;4933887;28;20079;-71
2022/01/21 08:32:41;;;;;;;9.38;1.40;;;2.20;99.90;;;;;;4934969;28;20126;-71
2022/01/21 08:35:08;;;;;;;9.68;1.70;;;2.20;99.90;;;;;;4945737;28;20579;-71
2022/01/21 08:37:34;;;;;;;10.90;2.63;;;2.20;99.90;;;;;;4937346;28;20062;-71
2022/01/21 08:40:00;;;;;;;8.90;2.60;;;2.30;99.90;;;;;;4943487;28;20419;-71
2022/01/21 08:42:26;;;;;;;10.40;2.22;;;2.20;99.90;;;;;;4939782;28;20148;-71
2022/01/21 08:44:52;;;;;;;9.65;2.53;;;2.30;99.90;;;;;;4941732;28;20072;-71
2022/01/21 08:47:20;;;;;;;5.63;1.88;;;2.20;99.90;;;;;;4942257;28;20109;-71
2022/01/21 08:49:48;;;;;;;8.43;1.80;;;2.20;99.90;;;;;;4931112;28;20044;-72
2022/01/21 08:52:19;;;;;;;9.60;1.92;;;2.30;99.90;;;;;;4932880;28;20063;-71
2022/01/21 08:54:48;;;;;;;15.10;3.35;;;2.30;99.90;;;;;;4932843;28;20056;-71
2022/01/21 08:57:15;;;;;;;10.57;2.10;;;2.30;99.90;;;;;;4933972;28;20047;-71
2022/01/21 08:59:40;;;;;;;12.52;1.98;;;2.40;99.90;;;;;;4936836;28;20134;-71
2022/01/21 09:02:06;;;;;;;16.35;1.95;;;2.40;99.90;;;;;;4936198;28;20126;-71
2022/01/21 09:04:32;;;;;;;18.58;2.42;;;2.50;99.90;;;;;;4933267;28;20058;-71
2022/01/21 09:06:58;;;;;;;12.73;2.20;;;2.50;99.90;;;;;;4936651;28;20051;-71
2022/01/21 09:09:25;;;;;;;15.13;2.13;;;2.60;99.90;;;;;;4945046;28;20562;-71
2022/01/21 09:11:53;;;;;;;10.25;2.33;;;2.60;99.90;;;;;;4945085;28;20142;-71
2022/01/21 09:14:18;;;;;;;10.07;2.08;;;2.70;99.90;;;;;;4944864;28;20077;-72
2022/01/21 09:16:44;;;;;;;5.90;1.02;;;2.70;99.90;;;;;;4936404;28;20067;-71
2022/01/21 09:19:10;;;;;;;15.73;2.22;;;2.70;99.90;;;;;;4931652;28;20051;-71
2022/01/21 09:21:38;;;;;;;20.15;2.22;;;2.80;99.90;;;;;;4930492;28;20617;-71
2022/01/21 09:24:05;;;;;;;13.85;2.45;;;2.80;99.90;;;;;;4947259;28;20131;-71
2022/01/21 09:26:31;;;;;;;12.35;2.10;;;2.80;99.90;;;;;;4931591;28;20048;-72
2022/01/21 09:28:58;;;;;;;13.93;2.05;;;2.90;99.90;;;;;;4933341;28;20445;-71
2022/01/21 09:31:25;;;;;;;18.90;2.28;;;2.90;99.90;;;;;;4942593;28;20058;-72
2022/01/21 09:33:51;;;;;;;18.20;2.75;;;2.90;99.90;;;;;;4942259;29;20479;-71
2022/01/21 09:36:18;;;;;;;11.98;1.88;;;3.00;99.90;;;;;;4932608;28;20040;-71
2022/01/21 09:38:45;;;;;;;9.85;1.80;;;3.00;99.90;;;;;;4932393;28;20066;-71
2022/01/21 09:41:11;;;;;;;17.25;2.60;;;3.00;99.90;;;;;;4932290;28;20056;-72
2022/01/21 09:43:39;;;;;;;11.95;1.92;;;3.00;99.90;;;;;;4938722;28;20054;-72
2022/01/21 09:46:07;;;;;;;14.35;1.80;;;3.10;99.90;;;;;;4944888;28;20039;-71
2022/01/21 09:48:52;;;;;;;11.68;2.45;;;3.10;99.90;;;;;;4936406;28;20044;-72
2022/01/21 09:51:18;;;;;;;;;;;3.10;99.90;;;;;;4944132;28;20550;-72
2022/01/21 09:53:44;;;;;;;12.77;2.05;;;3.20;99.90;;;;;;4943974;28;20246;-72
2022/01/21 09:56:11;;;;;;;18.30;2.10;;;3.20;99.90;;;;;;4942559;28;20123;-72
2022/01/21 09:58:36;;;;;;;12.88;2.00;;;3.20;99.90;;;;;;4934019;29;20063;-72
2022/01/21 10:01:06;;;;;;;11.63;1.65;;;3.20;99.90;;;;;;4932902;28;20048;-71
2022/01/21 10:03:32;;;;;;;16.80;2.22;;;3.30;99.90;;;;;;4937947;28;20054;-71
2022/01/21 10:05:59;;;;;;;15.07;2.17;;;3.30;99.90;;;;;;4942681;28;20062;-71
2022/01/21 10:08:25;;;;;;;9.40;1.80;;;3.40;99.90;;;;;;4943040;28;20036;-71
2022/01/21 10:10:51;;;;;;;13.07;1.83;;;3.40;99.90;;;;;;4945007;28;20047;-71
2022/01/21 10:13:19;;;;;;;10.73;2.33;;;3.40;99.90;;;;;;4941916;28;20051;-71
2022/01/21 10:15:47;;;;;;;12.80;2.30;;;3.50;99.90;;;;;;4942064;28;20059;-71
2022/01/21 10:18:17;;;;;;;11.93;1.58;;;3.60;99.90;;;;;;4934613;28;20513;-71
2022/01/21 10:21:06;;;;;;;12.80;2.30;;;3.60;99.90;;;;;;4948341;28;20178;-71
2022/01/21 10:23:35;;;;;;;12.50;1.77;;;3.60;99.90;;;;;;4932249;28;20123;-71
2022/01/21 10:26:06;;;;;;;15.60;3.28;;;3.60;99.90;;;;;;4933692;28;20055;-71
2022/01/21 10:28:33;;;;;;;12.45;1.90;;;3.70;99.90;;;;;;4937847;28;20043;-71
2022/01/21 10:31:27;;;;;;;16.25;2.45;;;3.70;99.90;;;;;;4934937;28;20059;-71
2022/01/21 10:33:56;;;;;;;11.20;1.97;;;3.80;99.90;;;;;;4937390;28;20059;-71
2022/01/21 10:36:35;;;;;;;11.27;2.00;;;3.80;99.90;;;;;;4934163;28;20093;-71
2022/01/21 10:39:18;;;;;;;22.58;4.45;;;3.90;99.90;;;;;;4933461;29;20044;-71
2022/01/21 10:41:47;;;;;;;14.38;3.78;;;3.90;99.90;;;;;;4932658;29;20138;-71
2022/01/21 10:44:14;;;;;;;15.55;2.15;;;4.00;99.90;;;;;;4933152;28;20051;-71
2022/01/21 10:46:49;;;;;;;19.63;2.15;;;4.00;99.90;;;;;;4933839;28;20063;-71
2022/01/21 10:49:15;;;;;;;11.80;2.28;;;4.00;99.90;;;;;;4935593;28;20064;-71
2022/01/21 10:51:49;;;;;;;10.73;1.35;;;4.10;99.90;;;;;;4945958;28;20074;-71
2022/01/21 10:54:18;;;;;;;16.52;2.00;;;4.10;99.90;;;;;;4933075;28;20467;-71
2022/01/21 10:57:13;;;;;;;14.73;2.05;;;4.20;99.90;;;;;;4935036;28;20113;-71
2022/01/21 10:59:59;;;;;;;15.38;2.30;;;4.20;99.90;;;;;;4934473;28;20438;-74
2022/01/21 11:02:27;;;;;;;14.82;2.05;;;4.30;99.90;;;;;;4939360;28;20054;-73
2022/01/21 11:04:53;;;;;;;13.45;2.47;;;4.30;99.90;;;;;;4932772;28;20058;-74
2022/01/21 11:07:51;;;;;;;10.48;2.13;;;4.30;99.90;;;;;;4944508;28;20036;-74
2022/01/21 11:10:35;;;;;;;17.83;2.22;;;4.30;99.90;;;;;;4946715;28;20040;-73
2022/01/21 11:13:13;;;;;;;15.30;2.50;;;4.30;99.90;;;;;;4934310;28;20154;-72
2022/01/21 11:15:46;;;;;;;21.55;2.70;;;4.30;99.90;;;;;;4933709;28;20058;-73
2022/01/21 11:18:15;;;;;;;15.43;2.45;;;4.40;99.90;;;;;;4933183;28;20052;-73
2022/01/21 11:20:43;;;;;;;16.92;3.35;;;4.40;99.90;;;;;;4935130;28;20129;-73
2022/01/21 11:23:09;;;;;;;23.48;2.97;;;4.50;99.90;;;;;;4945170;28;20075;-73
2022/01/21 11:25:51;;;;;;;14.30;2.65;;;4.60;99.90;;;;;;4948580;28;20043;-73
2022/01/21 11:28:20;;;;;;;22.95;2.90;;;4.60;99.90;;;;;;4931587;29;20055;-73
2022/01/21 11:30:46;;;;;;;16.90;2.45;;;4.60;99.90;;;;;;4929913;28;20064;-73
2022/01/21 11:33:12;;;;;;;14.38;2.28;;;4.70;99.90;;;;;;4934241;28;20058;-73
2022/01/21 11:35:38;;;;;;;16.23;2.72;;;4.70;99.90;;;;;;4935608;28;20039;-73
2022/01/21 11:38:12;;;;;;;19.65;3.13;;;4.70;99.90;;;;;;4935533;28;20043;-73
2022/01/21 11:40:40;;;;;;;27.70;2.72;;;4.70;99.90;;;;;;4946360;28;20090;-73
2022/01/21 11:43:07;;;;;;;16.30;2.85;;;4.90;99.90;;;;;;4943013;28;20054;-73
2022/01/21 11:46:05;;;;;;;17.25;2.58;;;4.80;99.90;;;;;;4936366;28;20423;-73
2022/01/21 11:50:52;;;;;;;12.82;2.10;;;4.90;99.90;;;;;;4934581;28;20062;-73
2022/01/21 11:53:43;;;;;;;8.88;1.75;;;4.90;99.90;;;;;;4934539;28;20032;-71
2022/01/21 11:56:46;;;;;;;19.42;2.15;;;5.00;99.90;;;;;;4944837;29;20035;-72
2022/01/21 11:59:37;;;;;;;13.00;2.17;;;5.00;99.90;;;;;;4939883;28;20053;-71
2022/01/21 12:02:15;;;;;;;11.88;1.88;;;5.00;99.90;;;;;;4933246;28;20082;-72
2022/01/21 12:04:54;;;;;;;11.07;1.58;;;5.10;99.90;;;;;;4944368;28;20047;-72
2022/01/21 12:07:48;;;;;;;15.68;1.95;;;5.10;99.90;;;;;;4938990;28;20058;-72
2022/01/21 12:10:29;;;;;;;16.10;1.47;;;5.20;99.90;;;;;;4939578;28;20075;-73
2022/01/21 12:12:58;;;;;;;13.18;1.92;;;5.30;99.90;;;;;;4938205;28;20036;-73
2022/01/21 12:16:23;;;;;;;9.93;1.33;;;5.30;99.90;;;;;;4934620;28;20047;-72
2022/01/21 12:21:27;;;;;;;10.82;1.17;;;5.30;99.90;;;;;;4952352;28;20582;-73
2022/01/21 12:23:53;;;;;;;13.73;1.45;;;5.40;99.90;;;;;;4934701;28;20054;-72
2022/01/21 12:26:29;;;;;;;11.57;2.33;;;5.40;99.90;;;;;;4944885;28;20051;-71
2022/01/21 12:28:58;;;;;;;14.27;2.63;;;5.40;99.90;;;;;;4935569;28;20044;-72
2022/01/21 12:31:44;;;;;;;7.78;1.48;;;5.40;99.90;;;;;;4943505;28;20562;-72
2022/01/21 12:34:15;;;;;;;11.57;2.33;;;5.40;99.90;;;;;;4933330;28;20495;-72
2022/01/21 12:36:53;;;;;;;9.55;2.22;;;5.40;99.90;;;;;;4934254;28;20093;-72
2022/01/21 12:39:45;;;;;;;10.38;2.00;;;5.40;99.90;;;;;;4943772;28;20051;-72
2022/01/21 12:42:24;;;;;;;14.73;1.83;;;5.40;99.90;;;;;;4942226;28;20134;-72
2022/01/21 12:45:17;;;;;;;9.85;1.45;;;5.40;99.90;;;;;;4931739;28;20491;-72
2022/01/21 12:47:45;;;;;;;12.75;2.08;;;5.50;99.90;;;;;;4931906;28;20062;-73
2022/01/21 12:50:39;;;;;;;14.80;2.30;;;5.50;99.90;;;;;;4930391;28;20043;-72
2022/01/21 12:53:25;;;;;;;9.80;2.33;;;5.50;99.90;;;;;;4936272;28;20514;-72
2022/01/21 12:56:02;;;;;;;9.70;1.30;;;5.60;99.90;;;;;;4947313;28;20051;-72
2022/01/21 12:58:32;;;;;;;11.05;1.63;;;5.60;99.90;;;;;;4933767;28;20380;-72
2022/01/21 13:01:06;;;;;;;13.50;2.20;;;5.60;99.90;;;;;;4934694;28;20055;-72
2022/01/21 13:03:44;;;;;;;12.80;1.75;;;5.60;99.90;;;;;;4936133;28;20097;-72
2022/01/21 13:06:23;;;;;;;15.35;2.55;;;5.60;99.90;;;;;;4937976;28;20109;-72
2022/01/21 13:09:13;;;;;;;8.02;1.70;;;5.60;99.90;;;;;;4943377;28;20093;-73
2022/01/21 13:11:54;;;;;;;15.20;1.70;;;5.70;99.90;;;;;;4931945;28;20047;-73
2022/01/21 13:17:06;;;;;;;8.93;1.23;;;5.70;99.90;;;;;;4931376;28;20059;-74
2022/01/21 13:19:43;;;;;;;8.52;1.52;;;5.70;99.90;;;;;;4934407;28;20174;-72
2022/01/21 13:22:17;;;;;;;12.00;1.88;;;5.70;99.90;;;;;;4943385;28;20495;-72
2022/01/21 13:25:08;;;;;;;17.77;2.40;;;5.80;99.90;;;;;;4931350;28;20040;-72
2022/01/21 13:27:43;;;;;;;12.40;1.80;;;5.80;99.90;;;;;;4943264;28;20501;-72
2022/01/21 13:30:11;;;;;;;12.30;1.70;;;5.90;99.90;;;;;;4932442;28;20047;-72
2022/01/21 13:32:37;;;;;;;12.82;1.30;;;5.90;99.90;;;;;;4942798;28;20545;-72
2022/01/21 13:35:11;;;;;;;13.52;1.58;;;5.90;99.90;;;;;;4941128;28;20117;-72
2022/01/21 13:37:38;;;;;;;13.10;2.03;;;5.90;99.90;;;;;;4940176;28;20040;-72
2022/01/21 13:40:07;;;;;;;10.45;1.75;;;5.90;99.90;;;;;;4939426;28;20145;-72
2022/01/21 13:42:33;;;;;;;13.45;2.22;;;6.00;99.90;;;;;;4934071;28;20109;-72
2022/01/21 13:45:04;;;;;;;12.30;2.03;;;5.90;99.90;;;;;;4930087;28;20068;-72
2022/01/21 13:47:37;;;;;;;11.05;1.88;;;5.90;99.90;;;;;;4930485;28;20052;-72
2022/01/21 13:50:06;;;;;;;13.57;1.55;;;5.90;99.90;;;;;;4934893;28;20048;-72
2022/01/21 13:52:43;;;;;;;11.60;1.70;;;6.00;99.90;;;;;;4940102;28;20079;-72
2022/01/21 13:55:29;;;;;;;12.20;2.00;;;6.00;99.90;;;;;;4939147;28;20475;-72